createdAt,value
2022-09-30T00:01:18.806Z,8.10
2022-09-30T00:03:45.105Z,8.27
2022-09-30T00:06:11.363Z,8.07
2022-09-30T00:08:38.094Z,8.55
2022-09-30T00:11:05.377Z,8.40
2022-09-30T00:13:32.567Z,8.05
2022-09-30T00:15:59.432Z,8.23
2022-09-30T00:18:26.027Z,8.45
2022-09-30T00:20:53.153Z,8.48
2022-09-30T00:23:20.097Z,8.45
2022-09-30T00:25:46.344Z,8.48
2022-09-30T00:28:12.590Z,8.32
2022-09-30T00:30:38.884Z,8.40
2022-09-30T00:33:05.125Z,9.02
2022-09-30T00:35:31.389Z,8.80
2022-09-30T00:37:57.660Z,9.05
2022-09-30T00:40:23.912Z,9.02
2022-09-30T00:42:50.241Z,9.52
2022-09-30T00:45:19.671Z,9.80
2022-09-30T00:47:48.788Z,8.55
2022-09-30T00:50:29.679Z,8.80
2022-09-30T00:53:18.081Z,8.32
2022-09-30T00:55:46.210Z,8.15
2022-09-30T00:58:15.718Z,7.00
2022-09-30T01:00:42.253Z,8.10
2022-09-30T01:03:08.599Z,7.68
2022-09-30T01:05:35.161Z,8.00
2022-09-30T01:08:03.438Z,8.05
2022-09-30T01:10:29.684Z,8.20
2022-09-30T01:12:56.872Z,8.85
2022-09-30T01:15:30.175Z,8.32
2022-09-30T01:18:25.729Z,7.88
2022-09-30T01:21:09.715Z,8.13
2022-09-30T01:23:47.147Z,8.23
2022-09-30T01:26:13.429Z,9.48
2022-09-30T01:28:58.534Z,8.63
2022-09-30T01:31:31.789Z,8.70
2022-09-30T01:34:18.319Z,9.38
2022-09-30T01:36:53.592Z,8.68
2022-09-30T01:39:29.164Z,8.27
2022-09-30T01:42:15.698Z,9.05
2022-09-30T01:44:47.964Z,7.72
2022-09-30T01:47:34.461Z,8.13
2022-09-30T01:50:07.260Z,9.73
2022-09-30T01:52:40.060Z,9.70
2022-09-30T01:55:18.543Z,9.90
2022-09-30T01:57:48.194Z,10.35
2022-09-30T02:00:15.243Z,10.82
2022-09-30T02:02:50.101Z,10.77
2022-09-30T02:05:22.372Z,10.32
2022-09-30T02:07:51.819Z,10.02
2022-09-30T02:10:22.376Z,9.05
2022-09-30T02:12:51.212Z,8.73
2022-09-30T02:15:26.453Z,8.82
2022-09-30T02:17:55.828Z,8.82
2022-09-30T02:20:23.839Z,9.30
2022-09-30T02:22:51.999Z,9.85
2022-09-30T02:25:27.325Z,9.57
2022-09-30T02:27:56.481Z,10.10
2022-09-30T02:30:22.922Z,9.45
2022-09-30T02:33:02.693Z,9.43
2022-09-30T02:35:35.192Z,9.38
2022-09-30T02:38:05.414Z,9.52
2022-09-30T02:40:43.807Z,7.97
2022-09-30T02:43:10.535Z,8.60
2022-09-30T02:45:46.131Z,7.70
2022-09-30T02:48:15.546Z,7.43
2022-09-30T02:51:02.051Z,8.13
2022-09-30T02:53:31.044Z,7.97
2022-09-30T02:56:10.339Z,7.82
2022-09-30T02:58:39.447Z,8.05
2022-09-30T03:01:10.261Z,8.38
2022-09-30T03:03:36.529Z,9.13
2022-09-30T03:06:03.476Z,9.05
2022-09-30T03:08:29.960Z,9.32
2022-09-30T03:10:56.389Z,8.90
2022-09-30T03:13:41.220Z,9.73
2022-09-30T03:16:22.440Z,9.70
2022-09-30T03:19:07.612Z,9.25
2022-09-30T03:21:53.145Z,9.43
2022-09-30T03:24:38.708Z,9.50
2022-09-30T03:27:23.525Z,10.18
2022-09-30T03:29:49.769Z,10.25
2022-09-30T03:32:22.714Z,11.32
2022-09-30T03:34:59.757Z,12.50
2022-09-30T03:37:30.097Z,11.07
2022-09-30T03:40:10.076Z,10.30
2022-09-30T03:42:38.839Z,9.88
2022-09-30T03:45:08.784Z,9.55
2022-09-30T03:47:37.800Z,9.77
2022-09-30T03:50:07.375Z,9.73
2022-09-30T03:52:33.880Z,10.15
2022-09-30T03:55:02.044Z,9.80
2022-09-30T03:57:29.308Z,9.52
2022-09-30T03:59:58.937Z,9.00
2022-09-30T04:02:25.532Z,8.95
2022-09-30T04:04:51.885Z,8.82
2022-09-30T04:07:18.161Z,8.57
2022-09-30T04:09:44.441Z,9.20
2022-09-30T04:12:11.030Z,8.68
2022-09-30T04:14:37.456Z,9.45
2022-09-30T04:17:04.371Z,8.63
2022-09-30T04:19:30.749Z,9.32
2022-09-30T04:21:57.259Z,8.63
2022-09-30T04:24:24.180Z,8.82
2022-09-30T04:26:50.957Z,8.38
2022-09-30T04:29:17.242Z,7.85
2022-09-30T04:31:43.571Z,8.77
2022-09-30T04:34:11.247Z,8.77
2022-09-30T04:36:37.877Z,8.50
2022-09-30T04:39:04.172Z,8.23
2022-09-30T04:41:32.133Z,8.52
2022-09-30T04:43:58.417Z,8.45
2022-09-30T04:46:24.692Z,8.35
2022-09-30T04:48:51.015Z,7.90
2022-09-30T04:51:18.733Z,7.88
2022-09-30T04:53:45.508Z,7.68
2022-09-30T04:56:11.811Z,8.35
2022-09-30T04:58:38.360Z,6.78
2022-09-30T05:01:05.779Z,7.30
2022-09-30T05:03:32.336Z,8.27
2022-09-30T05:05:58.640Z,7.70
2022-09-30T05:08:24.949Z,7.93
2022-09-30T05:10:58.115Z,8.45
2022-09-30T05:13:32.348Z,7.97
2022-09-30T05:15:58.663Z,8.23
2022-09-30T05:18:26.347Z,8.43
2022-09-30T05:20:53.199Z,8.65
2022-09-30T05:23:20.167Z,8.45
2022-09-30T05:25:46.720Z,8.25
2022-09-30T05:28:13.345Z,8.07
2022-09-30T05:30:41.793Z,7.70
2022-09-30T05:33:08.275Z,9.13
2022-09-30T05:35:34.614Z,8.40
2022-09-30T05:38:01.194Z,8.73
2022-09-30T05:40:27.532Z,9.15
2022-09-30T05:42:56.125Z,8.65
2022-09-30T05:45:22.386Z,8.55
2022-09-30T05:47:55.293Z,8.40
2022-09-30T05:50:22.612Z,8.47
2022-09-30T05:52:49.483Z,8.57
2022-09-30T05:55:16.399Z,8.68
2022-09-30T05:57:43.445Z,8.07
2022-09-30T06:00:10.136Z,8.27
2022-09-30T06:02:39.422Z,8.70
2022-09-30T06:05:06.843Z,8.85
2022-09-30T06:07:34.336Z,8.45
2022-09-30T06:10:01.029Z,9.15
2022-09-30T06:12:28.725Z,9.43
2022-09-30T06:14:55.373Z,9.45
2022-09-30T06:17:22.077Z,8.85
2022-09-30T06:19:49.593Z,8.18
2022-09-30T06:22:16.412Z,7.97
2022-09-30T06:24:42.832Z,8.30
2022-09-30T06:27:09.245Z,8.30
2022-09-30T06:29:35.483Z,7.75
2022-09-30T06:32:02.306Z,6.53
2022-09-30T06:34:28.684Z,5.97
2022-09-30T06:36:54.976Z,5.30
2022-09-30T06:39:21.260Z,4.78
2022-09-30T06:41:47.513Z,4.88
2022-09-30T06:44:24.115Z,4.38
2022-09-30T06:46:53.832Z,4.45
2022-09-30T06:49:21.033Z,3.95
2022-09-30T06:51:47.309Z,3.80
2022-09-30T06:54:13.712Z,4.40
2022-09-30T06:56:40.077Z,4.70
2022-09-30T06:59:06.943Z,4.95
2022-09-30T07:01:33.204Z,5.28
2022-09-30T07:03:59.548Z,6.70
2022-09-30T07:06:26.250Z,6.60
2022-09-30T07:08:54.056Z,7.88
2022-09-30T07:11:20.424Z,7.05
2022-09-30T07:13:47.431Z,7.15
2022-09-30T07:16:14.364Z,6.90
2022-09-30T07:18:42.671Z,5.80
2022-09-30T07:21:09.805Z,5.47
2022-09-30T07:23:36.501Z,5.90
2022-09-30T07:26:04.568Z,7.75
2022-09-30T07:28:33.789Z,7.95
2022-09-30T07:31:27.408Z,6.60
2022-09-30T07:33:47.662Z,5.25
2022-09-30T07:36:15.826Z,6.07
2022-09-30T07:38:42.573Z,6.05
2022-09-30T07:41:13.365Z,5.82
2022-09-30T07:43:40.177Z,5.70
2022-09-30T07:46:11.120Z,6.15
2022-09-30T07:48:41.521Z,6.40
2022-09-30T07:51:08.966Z,6.97
2022-09-30T07:53:35.616Z,6.28
2022-09-30T07:56:05.579Z,6.32
2022-09-30T07:58:32.458Z,6.30
2022-09-30T08:00:58.809Z,6.57
2022-09-30T08:03:25.152Z,6.38
2022-09-30T08:05:51.601Z,6.43
2022-09-30T08:08:18.442Z,6.68
2022-09-30T08:10:44.794Z,6.50
2022-09-30T08:13:13.812Z,7.00
2022-09-30T08:15:40.074Z,6.82
2022-09-30T08:18:06.584Z,7.07
2022-09-30T08:20:33.150Z,7.55
2022-09-30T08:22:59.417Z,7.47
2022-09-30T08:25:27.494Z,7.70
2022-09-30T08:27:54.343Z,7.75
2022-09-30T08:30:20.628Z,7.30
2022-09-30T08:32:46.894Z,7.55
2022-09-30T08:35:13.159Z,7.50
2022-09-30T08:37:39.453Z,7.47
2022-09-30T08:40:06.047Z,6.80
2022-09-30T08:42:41.343Z,7.80
2022-09-30T08:45:10.909Z,7.70
2022-09-30T08:47:42.883Z,8.00
2022-09-30T08:50:18.063Z,7.90
2022-09-30T08:52:49.819Z,7.60
2022-09-30T08:55:19.400Z,7.13
2022-09-30T08:57:47.628Z,8.07
2022-09-30T09:00:16.147Z,7.93
2022-09-30T09:02:45.520Z,6.95
2022-09-30T09:05:16.715Z,7.85
2022-09-30T09:07:49.153Z,7.68
2022-09-30T09:10:36.946Z,7.80
2022-09-30T09:13:03.892Z,9.50
2022-09-30T09:15:42.071Z,8.23
2022-09-30T09:18:23.744Z,7.38
2022-09-30T09:20:54.628Z,7.82
2022-09-30T09:23:21.904Z,8.55
2022-09-30T09:25:50.780Z,8.90
2022-09-30T09:28:27.821Z,8.15
2022-09-30T09:30:57.448Z,8.00
2022-09-30T09:33:27.634Z,7.88
2022-09-30T09:36:07.470Z,9.30
2022-09-30T09:38:41.939Z,8.45
2022-09-30T09:41:16.781Z,8.30
2022-09-30T09:44:05.559Z,8.48
2022-09-30T09:46:34.567Z,8.40
2022-09-30T09:49:13.154Z,8.93
2022-09-30T09:51:42.788Z,8.20
2022-09-30T09:54:10.785Z,8.02
2022-09-30T09:56:37.776Z,8.52
2022-09-30T09:59:05.722Z,9.10
2022-09-30T10:01:33.129Z,8.10
2022-09-30T10:04:15.700Z,7.88
2022-09-30T10:06:50.566Z,8.37
2022-09-30T10:09:31.977Z,7.28
2022-09-30T10:12:07.337Z,8.18
2022-09-30T10:14:45.990Z,6.93
2022-09-30T10:17:30.863Z,7.07
2022-09-30T10:20:07.193Z,6.10
2022-09-30T10:22:34.606Z,6.57
2022-09-30T10:25:12.928Z,5.85
2022-09-30T10:27:46.589Z,6.90
2022-09-30T10:30:12.973Z,5.72
2022-09-30T10:32:39.215Z,5.70
2022-09-30T10:35:20.256Z,5.70
2022-09-30T10:37:51.679Z,5.45
2022-09-30T10:40:18.364Z,6.75
2022-09-30T10:42:46.320Z,4.95
2022-09-30T10:45:23.306Z,5.63
2022-09-30T10:47:51.215Z,6.18
2022-09-30T10:50:20.530Z,6.50
2022-09-30T10:52:55.392Z,6.90
2022-09-30T10:55:22.000Z,7.65
2022-09-30T10:57:49.007Z,5.97
2022-09-30T11:00:18.791Z,6.10
2022-09-30T11:02:47.303Z,5.68
2022-09-30T11:05:19.247Z,4.90
2022-09-30T11:07:53.372Z,4.72
2022-09-30T11:10:25.433Z,4.93
2022-09-30T11:13:06.944Z,5.03
2022-09-30T11:15:50.402Z,5.30
2022-09-30T11:18:22.008Z,4.97
2022-09-30T11:20:51.724Z,4.85
2022-09-30T11:23:20.758Z,4.60
2022-09-30T11:25:56.192Z,3.90
2022-09-30T11:28:41.240Z,3.28
2022-09-30T11:31:10.688Z,3.70
2022-09-30T11:33:52.048Z,4.00
2022-09-30T11:36:30.833Z,3.30
2022-09-30T11:39:01.530Z,3.42
2022-09-30T11:41:33.025Z,3.53
2022-09-30T11:44:21.720Z,3.85
2022-09-30T11:46:47.963Z,3.30
2022-09-30T11:49:31.588Z,3.58
2022-09-30T11:52:22.169Z,3.17
2022-09-30T11:55:06.318Z,2.58
2022-09-30T11:57:37.282Z,2.85
2022-09-30T12:00:13.385Z,2.85
2022-09-30T12:02:47.813Z,2.97
2022-09-30T12:05:25.927Z,2.88
2022-09-30T12:07:52.172Z,3.33
2022-09-30T12:10:25.296Z,3.35
2022-09-30T12:12:56.272Z,3.70
2022-09-30T12:15:26.843Z,4.10
2022-09-30T12:18:00.429Z,3.70
2022-09-30T12:20:46.960Z,3.50
2022-09-30T12:23:32.048Z,3.22
2022-09-30T12:26:02.345Z,3.03
2022-09-30T12:28:53.417Z,3.30
2022-09-30T12:31:22.474Z,3.72
2022-09-30T12:33:57.668Z,3.63
2022-09-30T12:36:31.435Z,3.45
2022-09-30T12:38:57.934Z,3.30
2022-09-30T12:41:26.944Z,2.90
2022-09-30T12:43:56.283Z,3.30
2022-09-30T12:46:27.021Z,3.47
2022-09-30T12:48:55.831Z,3.15
2022-09-30T12:51:25.332Z,3.05
2022-09-30T12:53:57.238Z,2.60
2022-09-30T12:56:25.689Z,2.08
2022-09-30T12:58:52.125Z,2.55
2022-09-30T13:01:24.327Z,2.28
2022-09-30T13:03:50.768Z,2.40
2022-09-30T13:06:20.866Z,2.42
2022-09-30T13:08:56.597Z,2.38
2022-09-30T13:11:41.769Z,2.60
2022-09-30T13:14:14.723Z,2.25
2022-09-30T13:17:00.992Z,2.80
2022-09-30T13:19:47.209Z,2.53
2022-09-30T13:22:39.691Z,2.88
2022-09-30T13:25:13.503Z,2.53
2022-09-30T13:27:42.932Z,2.15
2022-09-30T13:30:18.159Z,2.50
2022-09-30T13:32:45.804Z,2.25
2022-09-30T13:35:32.267Z,2.03
2022-09-30T13:38:14.011Z,2.33
2022-09-30T13:41:01.788Z,2.40
2022-09-30T13:43:43.485Z,2.40
2022-09-30T13:46:12.905Z,2.42
2022-09-30T13:48:42.157Z,2.92
2022-09-30T13:51:14.189Z,2.38
2022-09-30T13:53:42.811Z,2.60
2022-09-30T13:56:17.097Z,2.70
2022-09-30T13:59:02.082Z,2.50
2022-09-30T14:01:43.703Z,2.33
2022-09-30T14:04:17.091Z,2.67
2022-09-30T14:07:07.757Z,2.53
2022-09-30T14:09:43.168Z,2.20
2022-09-30T14:12:19.802Z,2.50
2022-09-30T14:14:46.056Z,2.63
2022-09-30T14:17:21.171Z,2.20
2022-09-30T14:20:06.225Z,2.33
2022-09-30T14:22:35.265Z,2.40
2022-09-30T14:25:01.626Z,2.35
2022-09-30T14:27:32.958Z,2.50
2022-09-30T14:30:17.521Z,2.20
2022-09-30T14:33:01.486Z,2.10
2022-09-30T14:35:31.849Z,2.00
2022-09-30T14:38:07.693Z,2.20
2022-09-30T14:40:35.954Z,2.03
2022-09-30T14:43:04.805Z,2.28
2022-09-30T14:45:36.321Z,1.88
2022-09-30T14:48:06.228Z,2.08
2022-09-30T14:50:36.641Z,1.88
2022-09-30T14:53:03.592Z,1.95
2022-09-30T14:55:31.712Z,1.90
2022-09-30T14:58:21.461Z,1.95
2022-09-30T15:00:49.535Z,1.80
2022-09-30T15:03:15.866Z,1.48
2022-09-30T15:05:42.263Z,1.30
2022-09-30T15:08:12.756Z,1.70
2022-09-30T15:10:46.723Z,1.80
2022-09-30T15:13:12.997Z,1.60
2022-09-30T15:15:40.558Z,1.63
2022-09-30T15:18:25.752Z,1.70
2022-09-30T15:20:53.941Z,1.58
2022-09-30T15:23:24.888Z,1.80
2022-09-30T15:25:52.015Z,1.63
2022-09-30T15:28:18.519Z,1.70
2022-09-30T15:30:45.180Z,1.70
2022-09-30T15:33:13.857Z,1.70
2022-09-30T15:35:40.338Z,1.52
2022-09-30T15:38:18.364Z,1.83
2022-09-30T15:40:53.135Z,1.90
2022-09-30T15:43:39.483Z,1.90
2022-09-30T15:46:16.417Z,1.70
2022-09-30T15:48:44.724Z,1.58
2022-09-30T15:51:27.956Z,1.70
2022-09-30T15:53:57.940Z,1.70
2022-09-30T15:56:35.539Z,1.70
2022-09-30T15:59:05.252Z,1.50
2022-09-30T16:01:38.922Z,1.58
2022-09-30T16:04:05.445Z,1.73
2022-09-30T16:06:37.492Z,1.80
2022-09-30T16:09:06.560Z,1.52
2022-09-30T16:11:45.117Z,2.00
2022-09-30T16:14:18.298Z,1.63
2022-09-30T16:16:48.377Z,2.20
2022-09-30T16:19:17.126Z,2.33
2022-09-30T16:21:44.677Z,2.20
2022-09-30T16:24:23.292Z,2.20
2022-09-30T16:26:53.795Z,2.22
2022-09-30T16:29:21.193Z,2.13
2022-09-30T16:31:49.376Z,1.70
2022-09-30T16:34:23.230Z,1.90
2022-09-30T16:36:49.832Z,1.83
2022-09-30T16:39:16.653Z,1.80
2022-09-30T16:41:43.032Z,2.00
2022-09-30T16:44:09.704Z,1.95
2022-09-30T16:46:36.196Z,1.70
2022-09-30T16:49:19.224Z,1.50
2022-09-30T16:51:45.952Z,1.80
2022-09-30T16:54:12.629Z,1.90
2022-09-30T16:56:38.900Z,2.28
2022-09-30T16:59:11.392Z,2.40
2022-09-30T17:01:37.697Z,4.97
2022-09-30T17:04:04.311Z,4.50
2022-09-30T17:06:31.752Z,3.30
2022-09-30T17:09:00.237Z,2.25
2022-09-30T17:11:27.913Z,2.63
2022-09-30T17:13:54.172Z,2.30
2022-09-30T17:16:20.520Z,2.90
2022-09-30T17:18:46.798Z,2.92
2022-09-30T17:21:13.065Z,2.85
2022-09-30T17:23:39.405Z,3.92
2022-09-30T17:26:06.116Z,5.20
2022-09-30T17:28:34.562Z,4.07
2022-09-30T17:31:00.829Z,3.30
2022-09-30T17:33:34.232Z,2.70
2022-09-30T17:36:02.111Z,2.75
2022-09-30T17:38:28.926Z,4.13
2022-09-30T17:41:13.940Z,7.00
2022-09-30T17:43:40.237Z,8.13
2022-09-30T17:46:06.529Z,8.50
2022-09-30T17:48:32.870Z,8.02
2022-09-30T17:50:59.924Z,7.78
2022-09-30T17:53:26.201Z,6.93
2022-09-30T17:56:03.294Z,6.45
2022-09-30T17:58:29.684Z,6.60
2022-09-30T18:00:59.279Z,7.10
2022-09-30T18:03:26.268Z,7.75
2022-09-30T18:05:59.142Z,9.00
2022-09-30T18:08:25.862Z,8.50
2022-09-30T18:10:52.962Z,9.30
2022-09-30T18:13:22.038Z,9.15
2022-09-30T18:15:48.275Z,9.20
2022-09-30T18:18:14.536Z,8.32
2022-09-30T18:20:47.481Z,8.00
2022-09-30T18:23:14.316Z,7.68
2022-09-30T18:25:43.727Z,8.48
2022-09-30T18:28:10.976Z,8.30
2022-09-30T18:30:37.962Z,7.65
2022-09-30T18:33:06.971Z,6.95
2022-09-30T18:35:36.720Z,7.05
2022-09-30T18:38:03.404Z,7.20
2022-09-30T18:40:30.296Z,10.07
2022-09-30T18:42:58.250Z,8.63
2022-09-30T18:45:25.208Z,7.78
2022-09-30T18:47:53.964Z,7.57
2022-09-30T18:50:21.733Z,6.90
2022-09-30T18:52:47.988Z,7.05
2022-09-30T18:55:14.328Z,5.97
2022-09-30T18:57:41.605Z,6.15
2022-09-30T19:00:10.636Z,6.05
2022-09-30T19:02:39.509Z,4.90
2022-09-30T19:05:06.924Z,4.38
2022-09-30T19:07:34.960Z,4.28
2022-09-30T19:10:01.922Z,4.50
2022-09-30T19:12:35.717Z,5.05
2022-09-30T19:15:06.512Z,5.65
2022-09-30T19:17:32.979Z,5.78
2022-09-30T19:20:00.531Z,6.43
2022-09-30T19:22:27.375Z,6.85
2022-09-30T19:24:53.696Z,8.55
2022-09-30T19:27:22.364Z,9.40
2022-09-30T19:29:50.041Z,8.43
2022-09-30T19:32:17.188Z,7.35
2022-09-30T19:34:43.635Z,7.45
2022-09-30T19:37:22.195Z,7.55
2022-09-30T19:39:52.077Z,8.57
2022-09-30T19:42:18.349Z,9.63
2022-09-30T19:44:44.624Z,10.73
2022-09-30T19:47:11.998Z,10.13
2022-09-30T19:49:38.274Z,10.35
2022-09-30T19:52:13.669Z,8.88
2022-09-30T19:54:43.132Z,8.10
2022-09-30T19:57:09.432Z,7.72
2022-09-30T19:59:35.689Z,7.63
2022-09-30T20:02:02.308Z,9.25
2022-09-30T20:04:29.944Z,10.50
2022-09-30T20:06:56.209Z,10.68
2022-09-30T20:09:22.477Z,10.55
2022-09-30T20:11:48.756Z,10.77
2022-09-30T20:14:33.882Z,13.63
2022-09-30T20:17:00.228Z,14.45
2022-09-30T20:19:26.468Z,15.05
2022-09-30T20:21:54.335Z,16.50
2022-09-30T20:24:20.915Z,17.23
2022-09-30T20:26:47.525Z,15.43
2022-09-30T20:29:14.008Z,17.27
2022-09-30T20:31:41.439Z,23.92
2022-09-30T20:34:09.460Z,22.27
2022-09-30T20:36:35.725Z,22.13
2022-09-30T20:39:02.541Z,19.95
2022-09-30T20:41:35.961Z,16.30
2022-09-30T20:44:11.701Z,15.90
2022-09-30T20:46:37.977Z,16.23
2022-09-30T20:49:04.454Z,15.45
2022-09-30T20:51:31.331Z,15.27
2022-09-30T20:53:58.638Z,14.80
2022-09-30T20:56:26.047Z,15.02
2022-09-30T20:58:53.037Z,14.65
2022-09-30T21:01:20.305Z,14.60
2022-09-30T21:03:50.190Z,13.35
2022-09-30T21:06:20.622Z,13.40
2022-09-30T21:08:47.113Z,12.90
2022-09-30T21:11:13.737Z,12.93
2022-09-30T21:13:43.608Z,12.13
2022-09-30T21:16:11.673Z,12.55
2022-09-30T21:18:38.026Z,12.93
2022-09-30T21:21:04.411Z,11.00
2022-09-30T21:23:31.691Z,10.50
2022-09-30T21:25:57.973Z,10.05
2022-09-30T21:28:24.989Z,10.75
2022-09-30T21:30:52.025Z,10.52
2022-09-30T21:33:18.741Z,10.73
2022-09-30T21:35:45.405Z,10.15
2022-09-30T21:38:16.119Z,10.18
2022-09-30T21:40:42.710Z,10.25
2022-09-30T21:43:08.963Z,9.65
2022-09-30T21:45:35.460Z,10.32
2022-09-30T21:48:02.426Z,9.95
2022-09-30T21:50:28.730Z,10.13
2022-09-30T21:52:54.988Z,10.93
2022-09-30T21:55:21.276Z,11.77
2022-09-30T21:57:47.557Z,11.38
2022-09-30T22:00:13.851Z,11.55
2022-09-30T22:02:43.603Z,12.07
2022-09-30T22:05:10.689Z,10.98
2022-09-30T22:07:36.950Z,12.50
2022-09-30T22:10:03.465Z,10.70
2022-09-30T22:12:32.181Z,10.13
2022-09-30T22:14:58.438Z,10.00
2022-09-30T22:17:24.682Z,10.00
2022-09-30T22:19:51.084Z,11.18
2022-09-30T22:22:17.340Z,12.13
2022-09-30T22:24:43.596Z,14.82
2022-09-30T22:27:09.924Z,14.63
2022-09-30T22:29:36.228Z,17.30
2022-09-30T22:32:02.603Z,17.38
2022-09-30T22:34:47.635Z,13.75
2022-09-30T22:37:32.494Z,10.52
2022-09-30T22:40:01.000Z,8.85
2022-09-30T22:42:29.096Z,8.05
2022-09-30T22:44:55.325Z,8.07
2022-09-30T22:47:21.688Z,8.40
2022-09-30T22:49:47.950Z,8.18
2022-09-30T22:52:14.320Z,9.35
2022-09-30T22:54:40.696Z,8.80
2022-09-30T22:57:09.776Z,8.38
2022-09-30T22:59:39.129Z,8.40
2022-09-30T23:02:05.458Z,8.02
2022-09-30T23:04:32.528Z,7.53
2022-09-30T23:06:59.017Z,7.88
2022-09-30T23:09:25.294Z,7.70
2022-09-30T23:11:53.507Z,7.57
2022-09-30T23:14:20.712Z,7.38
2022-09-30T23:16:47.411Z,7.43
2022-09-30T23:19:13.793Z,7.38
2022-09-30T23:21:40.706Z,7.30
2022-09-30T23:24:07.272Z,7.20
2022-09-30T23:26:34.149Z,7.43
2022-09-30T23:29:01.730Z,7.38
2022-09-30T23:31:28.375Z,7.30
2022-09-30T23:33:56.173Z,7.15
2022-09-30T23:36:27.037Z,7.43
2022-09-30T23:38:53.680Z,7.45
2022-09-30T23:41:19.933Z,7.70
2022-09-30T23:43:48.088Z,7.72
2022-09-30T23:46:15.305Z,7.45
2022-09-30T23:48:41.604Z,7.45
2022-09-30T23:51:07.867Z,7.70
2022-09-30T23:53:34.705Z,7.70
2022-09-30T23:56:02.782Z,7.75
2022-09-30T23:58:29.546Z,7.65
